Time;durP1;ratioP1;P1;durP2;ratioP2;P2;SDS_P1;SDS_P2;PMS_P1;PMS_P2;Temp;Humidity;BMP_temperature;BMP_pressure;BME280_temperature;BME280_humidity;BME280_pressure;Samples;Min_cycle;Max_cycle;Signal;HPM_P1;HPM_P2
2023/03/04 00:01:17;;;;;;;0.10;0.10;;;7.90;99.90;;;;;;5053172;28;20123;-74
2023/03/04 00:03:43;;;;;;;0.10;0.10;;;8.00;99.90;;;;;;5054361;28;20028;-74
2023/03/04 00:06:09;;;;;;;0.20;0.20;;;8.00;99.90;;;;;;5052200;28;20072;-73
2023/03/04 00:08:35;;;;;;;0.10;0.10;;;8.00;99.90;;;;;;5053363;28;20108;-73
2023/03/04 00:11:01;;;;;;;0.10;0.10;;;8.00;99.90;;;;;;5051922;28;20036;-74
2023/03/04 00:13:27;;;;;;;0.20;0.20;;;8.00;99.90;;;;;;5053135;28;20037;-74
2023/03/04 00:15:53;;;;;;;0.10;0.10;;;7.90;99.90;;;;;;5053595;28;20032;-74
2023/03/04 00:18:20;;;;;;;0.10;0.10;;;8.00;99.90;;;;;;5053020;28;20112;-73
2023/03/04 00:20:46;;;;;;;0.10;0.10;;;7.90;99.90;;;;;;5052998;28;20041;-74
2023/03/04 00:23:12;;;;;;;0.10;0.10;;;7.80;99.90;;;;;;5053327;28;20020;-74
2023/03/04 00:25:37;;;;;;;0.20;0.20;;;7.80;99.90;;;;;;5053201;28;20516;-74
2023/03/04 00:28:04;;;;;;;0.10;0.10;;;7.70;99.90;;;;;;5053030;28;20082;-74
2023/03/04 00:30:30;;;;;;;0.30;0.30;;;7.80;99.90;;;;;;5051836;28;20473;-74
2023/03/04 00:32:56;;;;;;;3.45;0.63;;;7.90;99.90;;;;;;5085244;28;20037;-74
2023/03/04 00:35:22;;;;;;;0.17;0.17;;;7.80;99.90;;;;;;5051602;28;20446;-73
2023/03/04 00:37:48;;;;;;;0.10;0.10;;;7.90;99.90;;;;;;5053006;28;20037;-74
2023/03/04 00:40:15;;;;;;;0.73;0.73;;;7.90;99.90;;;;;;5052860;28;20067;-74
2023/03/04 00:42:41;;;;;;;0.17;0.17;;;7.70;99.90;;;;;;5051672;28;20029;-74
2023/03/04 00:45:08;;;;;;;0.40;0.40;;;7.60;99.90;;;;;;5052832;28;20033;-73
2023/03/04 00:47:34;;;;;;;0.10;0.10;;;7.70;99.90;;;;;;5052695;28;20108;-73
2023/03/04 00:50:01;;;;;;;0.20;0.20;;;7.60;99.90;;;;;;5053203;28;20465;-74
2023/03/04 00:52:26;;;;;;;0.20;0.20;;;7.70;99.90;;;;;;5051358;28;20045;-73
2023/03/04 00:54:53;;;;;;;0.10;0.10;;;7.60;99.90;;;;;;5052836;28;20025;-74
2023/03/04 00:57:18;;;;;;;0.20;0.20;;;7.60;99.90;;;;;;5052608;28;20025;-73
2023/03/04 00:59:45;;;;;;;0.38;0.38;;;7.50;99.90;;;;;;5051425;28;20032;-74
2023/03/04 01:02:12;;;;;;;1.27;1.17;;;7.60;99.90;;;;;;5052925;28;20382;-74
2023/03/04 01:04:37;;;;;;;0.63;0.50;;;7.50;99.90;;;;;;5052136;28;20028;-74
2023/03/04 01:07:03;;;;;;;0.15;0.15;;;7.50;99.90;;;;;;5052788;28;20032;-73
2023/03/04 01:09:30;;;;;;;0.20;0.20;;;7.50;99.90;;;;;;5051198;28;20033;-73
2023/03/04 01:11:56;;;;;;;0.17;0.17;;;7.60;99.90;;;;;;5052207;28;20029;-74
2023/03/04 01:14:22;;;;;;;0.57;0.57;;;7.50;99.90;;;;;;5052479;28;20110;-74
2023/03/04 01:16:48;;;;;;;0.10;0.10;;;7.50;99.90;;;;;;5050958;28;20474;-74
2023/03/04 01:19:14;;;;;;;0.10;0.10;;;7.60;99.90;;;;;;5051435;28;20091;-73
2023/03/04 01:21:40;;;;;;;0.28;0.28;;;7.50;99.90;;;;;;5052410;28;20037;-74
2023/03/04 01:24:06;;;;;;;4.97;0.65;;;7.60;99.90;;;;;;5053336;28;20033;-73
2023/03/04 01:26:32;;;;;;;0.85;0.85;;;7.50;99.90;;;;;;5055335;28;20530;-73
2023/03/04 01:28:58;;;;;;;0.68;0.68;;;7.40;99.90;;;;;;5055109;28;20029;-73
2023/03/04 01:31:24;;;;;;;1.02;0.73;;;7.40;99.90;;;;;;5056166;28;20033;-74
2023/03/04 01:33:51;;;;;;;12.10;2.22;;;7.40;99.90;;;;;;5055149;28;20496;-74
2023/03/04 01:36:16;;;;;;;1.55;0.90;;;7.40;99.90;;;;;;5055191;28;20025;-74
2023/03/04 01:38:42;;;;;;;0.50;0.47;;;7.30;99.90;;;;;;5056207;28;20520;-74
2023/03/04 01:41:10;;;;;;;0.10;0.10;;;7.30;99.90;;;;;;5056249;28;20130;-73
2023/03/04 01:43:37;;;;;;;0.95;0.95;;;7.50;99.90;;;;;;5055009;28;20483;-74
2023/03/04 01:46:03;;;;;;;0.25;0.25;;;7.40;99.90;;;;;;5054600;28;20099;-74
2023/03/04 01:48:32;;;;;;;0.60;0.60;;;7.50;99.90;;;;;;5054925;28;20029;-73
2023/03/04 01:51:01;;;;;;;0.10;0.10;;;7.50;99.90;;;;;;5037960;28;20033;-74
2023/03/04 01:53:29;;;;;;;1.08;0.52;;;7.60;99.90;;;;;;5055031;28;20037;-73
2023/03/04 01:56:24;;;;;;;1.27;0.88;;;7.50;99.90;;;;;;5053561;28;20036;-74
2023/03/04 01:59:17;;;;;;;0.85;0.50;;;7.40;99.90;;;;;;5054740;28;20111;-73
2023/03/04 02:01:51;;;;;;;0.20;0.20;;;7.50;99.90;;;;;;5055620;28;20037;-73
2023/03/04 02:04:19;;;;;;;0.13;0.13;;;7.40;99.90;;;;;;5055692;28;20033;-73
2023/03/04 02:06:46;;;;;;;0.57;0.50;;;7.40;99.90;;;;;;5056189;28;20044;-73
2023/03/04 02:09:14;;;;;;;0.10;0.10;;;7.50;99.90;;;;;;5054318;28;20025;-74
2023/03/04 02:11:40;;;;;;;0.30;0.30;;;7.40;99.90;;;;;;5055820;28;20489;-73
2023/03/04 02:14:09;;;;;;;19.88;1.10;;;7.20;99.90;;;;;;5054349;28;20024;-73
2023/03/04 02:16:35;;;;;;;0.65;0.60;;;7.20;99.90;;;;;;5087515;28;20021;-73
2023/03/04 02:19:03;;;;;;;0.75;0.70;;;7.10;99.90;;;;;;5054095;28;20389;-73
2023/03/04 02:21:32;;;;;;;0.10;0.10;;;7.10;99.90;;;;;;5055488;28;20112;-74
2023/03/04 02:24:21;;;;;;;0.80;0.77;;;7.20;99.90;;;;;;5055809;28;20017;-73
2023/03/04 02:26:48;;;;;;;0.10;0.10;;;7.30;99.90;;;;;;5055567;28;20079;-73
2023/03/04 02:29:16;;;;;;;0.10;0.10;;;7.30;99.90;;;;;;5053903;28;20552;-73
2023/03/04 02:31:53;;;;;;;0.82;0.75;;;7.20;99.90;;;;;;5054065;28;20032;-74
2023/03/04 02:34:28;;;;;;;2.95;1.65;;;7.30;99.90;;;;;;5055257;28;20545;-73
2023/03/04 02:36:55;;;;;;;0.55;0.55;;;7.20;99.90;;;;;;5055301;28;20103;-73
2023/03/04 02:39:38;;;;;;;3.30;0.75;;;7.30;99.90;;;;;;5054029;28;20508;-73
2023/03/04 02:42:04;;;;;;;0.65;0.65;;;7.30;99.90;;;;;;5053857;28;20050;-73
2023/03/04 02:44:35;;;;;;;0.35;0.35;;;7.20;99.90;;;;;;5053575;28;20118;-73
2023/03/04 02:47:05;;;;;;;0.10;0.10;;;7.10;99.90;;;;;;5053690;28;20083;-74
2023/03/04 02:49:32;;;;;;;2.28;1.17;;;7.20;99.90;;;;;;5055581;28;20037;-73
2023/03/04 02:52:04;;;;;;;0.20;0.20;;;7.10;99.90;;;;;;5054605;28;20404;-74
2023/03/04 02:54:31;;;;;;;10.98;1.00;;;7.20;99.90;;;;;;5053577;28;20497;-73
2023/03/04 02:57:02;;;;;;;0.50;0.50;;;7.20;99.90;;;;;;5053276;28;20032;-74
2023/03/04 02:59:28;;;;;;;3.53;1.17;;;7.10;99.90;;;;;;5053519;28;20025;-74
2023/03/04 03:01:55;;;;;;;0.17;0.17;;;7.20;99.90;;;;;;5037010;28;20076;-74
2023/03/04 03:04:23;;;;;;;2.00;0.90;;;7.10;99.90;;;;;;5053262;28;20025;-74
2023/03/04 03:06:51;;;;;;;0.90;0.68;;;7.10;99.90;;;;;;5054702;28;20477;-73
2023/03/04 03:09:18;;;;;;;0.20;0.20;;;7.10;99.90;;;;;;5053280;28;20112;-73
2023/03/04 03:11:44;;;;;;;0.10;0.10;;;7.10;99.90;;;;;;5054430;28;20037;-74
2023/03/04 03:14:10;;;;;;;0.60;0.60;;;7.20;99.90;;;;;;5053093;28;20433;-73
2023/03/04 03:16:35;;;;;;;0.20;0.20;;;7.20;99.90;;;;;;5086989;28;20021;-73
2023/03/04 03:19:02;;;;;;;0.10;0.10;;;7.20;99.90;;;;;;5054507;28;20021;-73
2023/03/04 03:21:28;;;;;;;0.10;0.10;;;7.10;99.90;;;;;;5052738;28;20025;-74
2023/03/04 03:23:54;;;;;;;0.10;0.10;;;7.20;99.90;;;;;;5086923;28;20389;-73
2023/03/04 03:26:20;;;;;;;0.10;0.10;;;7.20;99.90;;;;;;5053069;28;20039;-73
2023/03/04 03:28:46;;;;;;;0.32;0.32;;;7.20;99.90;;;;;;5054015;28;20021;-73
2023/03/04 03:31:12;;;;;;;0.13;0.13;;;7.20;99.90;;;;;;5054097;28;20388;-73
2023/03/04 03:33:38;;;;;;;0.20;0.20;;;7.30;99.90;;;;;;5054384;28;20549;-73
2023/03/04 03:36:05;;;;;;;0.30;0.30;;;7.20;99.90;;;;;;5052868;28;20439;-73
2023/03/04 03:38:31;;;;;;;7.57;0.85;;;7.10;99.90;;;;;;5052901;28;20033;-73
2023/03/04 03:40:57;;;;;;;0.10;0.10;;;7.10;99.90;;;;;;5053913;28;20086;-74
2023/03/04 03:43:23;;;;;;;0.10;0.10;;;7.20;99.90;;;;;;5053882;28;20056;-74
2023/03/04 03:45:50;;;;;;;0.10;0.10;;;7.30;99.90;;;;;;5052332;28;20041;-73
2023/03/04 03:48:16;;;;;;;0.20;0.20;;;7.40;99.90;;;;;;5052567;28;20028;-74
2023/03/04 03:50:42;;;;;;;0.15;0.15;;;7.50;99.90;;;;;;5053935;28;20039;-74
2023/03/04 03:53:08;;;;;;;0.10;0.10;;;7.50;99.90;;;;;;5053826;28;20028;-74
2023/03/04 03:55:34;;;;;;;0.10;0.10;;;7.60;99.90;;;;;;5053839;28;20473;-74
2023/03/04 03:58:00;;;;;;;18.42;0.93;;;7.60;99.90;;;;;;5052422;28;20049;-74
2023/03/04 04:00:26;;;;;;;0.10;0.10;;;7.50;99.90;;;;;;5053593;28;20063;-73
2023/03/04 04:02:54;;;;;;;0.30;0.30;;;7.70;99.90;;;;;;5052316;28;20025;-74
2023/03/04 04:05:20;;;;;;;3.35;0.90;;;7.40;99.90;;;;;;5053440;28;20492;-74
2023/03/04 04:07:46;;;;;;;1.10;1.10;;;7.60;99.90;;;;;;5054207;28;20025;-74
2023/03/04 04:10:11;;;;;;;0.10;0.10;;;7.50;99.90;;;;;;5062672;28;20127;-73
2023/03/04 04:12:37;;;;;;;0.20;0.20;;;7.60;99.90;;;;;;5052866;28;20429;-73
2023/03/04 04:15:04;;;;;;;0.10;0.10;;;7.50;99.90;;;;;;5053303;28;20078;-74
2023/03/04 04:17:29;;;;;;;0.10;0.10;;;7.50;99.90;;;;;;5053281;28;20029;-74
2023/03/04 04:19:55;;;;;;;0.10;0.10;;;7.80;99.90;;;;;;5053414;28;20040;-74
2023/03/04 04:22:21;;;;;;;0.10;0.10;;;7.80;99.90;;;;;;5051916;28;20046;-74
2023/03/04 04:24:47;;;;;;;0.10;0.10;;;7.80;99.90;;;;;;5035140;28;20112;-73
2023/03/04 04:27:13;;;;;;;0.10;0.10;;;7.90;99.90;;;;;;5052995;28;20047;-74
2023/03/04 04:29:40;;;;;;;0.25;0.25;;;7.60;99.90;;;;;;5053219;28;20024;-73
2023/03/04 04:32:07;;;;;;;0.10;0.10;;;7.50;99.90;;;;;;5053219;28;20036;-74
2023/03/04 04:34:33;;;;;;;0.10;0.10;;;7.70;99.90;;;;;;5053184;28;20100;-73
2023/03/04 04:37:00;;;;;;;0.10;0.10;;;7.80;99.90;;;;;;5053007;28;20029;-74
2023/03/04 04:39:26;;;;;;;0.10;0.10;;;7.80;99.90;;;;;;5052984;28;20389;-74
2023/03/04 04:41:52;;;;;;;0.10;0.10;;;7.90;99.90;;;;;;5052599;28;20027;-74
2023/03/04 04:44:18;;;;;;;0.25;0.25;;;7.90;99.90;;;;;;5052809;28;20033;-74
2023/03/04 04:46:43;;;;;;;0.30;0.30;;;7.70;99.90;;;;;;5052934;28;20021;-74
2023/03/04 04:49:10;;;;;;;0.10;0.10;;;7.70;99.90;;;;;;5052676;28;20025;-74
2023/03/04 04:51:37;;;;;;;0.10;0.10;;;7.60;99.90;;;;;;5052598;28;20041;-74
2023/03/04 04:54:03;;;;;;;0.10;0.10;;;7.60;99.90;;;;;;5052684;28;20036;-74
2023/03/04 04:56:29;;;;;;;0.10;0.10;;;7.60;99.90;;;;;;5052757;28;20397;-74
2023/03/04 04:58:57;;;;;;;0.20;0.20;;;7.60;99.90;;;;;;5051718;28;20025;-75
2023/03/04 05:01:24;;;;;;;0.75;0.75;;;7.60;99.90;;;;;;5052655;28;20029;-74
2023/03/04 05:03:52;;;;;;;0.20;0.20;;;7.60;99.90;;;;;;5052332;28;20081;-74
2023/03/04 05:06:18;;;;;;;0.20;0.20;;;7.50;99.90;;;;;;5052481;28;20082;-74
2023/03/04 05:08:44;;;;;;;0.47;0.47;;;7.60;99.90;;;;;;5052243;28;20037;-74
2023/03/04 05:11:09;;;;;;;0.22;0.22;;;7.60;99.90;;;;;;5050893;28;20048;-75
2023/03/04 05:13:36;;;;;;;0.98;0.43;;;7.60;99.90;;;;;;5052543;28;20064;-74
2023/03/04 05:16:02;;;;;;;0.10;0.10;;;7.30;99.90;;;;;;5051121;28;20313;-74
2023/03/04 05:18:28;;;;;;;0.10;0.10;;;7.30;99.90;;;;;;5084679;28;20416;-74
2023/03/04 05:20:57;;;;;;;0.20;0.20;;;7.40;99.90;;;;;;5052173;28;20025;-73
2023/03/04 05:23:24;;;;;;;0.30;0.30;;;7.30;99.90;;;;;;5052092;28;20461;-74
2023/03/04 05:25:50;;;;;;;0.10;0.10;;;7.50;99.90;;;;;;5052598;28;20025;-74
2023/03/04 05:28:17;;;;;;;0.17;0.17;;;7.60;99.90;;;;;;5052079;28;20481;-74
2023/03/04 05:30:44;;;;;;;0.22;0.22;;;7.60;99.90;;;;;;5052310;28;20021;-74
2023/03/04 05:33:12;;;;;;;0.20;0.20;;;7.60;99.90;;;;;;5052060;28;20033;-74
2023/03/04 05:35:39;;;;;;;2.83;1.42;;;7.50;99.90;;;;;;5052374;28;20082;-74
2023/03/04 05:38:07;;;;;;;0.30;0.30;;;7.50;99.90;;;;;;5052026;28;20389;-73
2023/03/04 05:40:33;;;;;;;0.30;0.30;;;7.50;99.90;;;;;;5051958;28;20040;-74
2023/03/04 05:42:59;;;;;;;0.15;0.15;;;7.60;99.90;;;;;;5052177;28;20025;-74
2023/03/04 05:45:26;;;;;;;0.10;0.10;;;7.50;99.90;;;;;;5052055;28;20032;-74
2023/03/04 05:47:52;;;;;;;0.65;0.30;;;7.50;99.90;;;;;;5051077;28;20021;-73
2023/03/04 05:50:19;;;;;;;0.20;0.20;;;7.50;99.90;;;;;;5050875;28;20033;-73
2023/03/04 05:52:45;;;;;;;0.68;0.68;;;7.50;99.90;;;;;;5067493;28;20048;-73
2023/03/04 05:55:12;;;;;;;9.60;1.35;;;7.30;99.90;;;;;;5051898;28;20024;-74
2023/03/04 05:57:37;;;;;;;0.50;0.50;;;7.10;99.90;;;;;;5052047;28;20025;-73
2023/03/04 06:00:08;;;;;;;0.45;0.30;;;6.90;99.90;;;;;;5051621;28;20366;-73
2023/03/04 06:02:39;;;;;;;4.15;2.28;;;7.00;99.90;;;;;;5051983;28;20033;-73
2023/03/04 06:05:05;;;;;;;2.17;1.05;;;6.90;99.90;;;;;;5051735;28;20037;-73
2023/03/04 06:07:31;;;;;;;0.50;0.50;;;6.80;99.90;;;;;;5050581;28;20024;-73
2023/03/04 06:09:57;;;;;;;0.22;0.22;;;6.70;99.90;;;;;;5053577;28;20033;-73
2023/03/04 06:12:23;;;;;;;1.65;0.57;;;6.70;99.90;;;;;;5055205;28;20036;-74
2023/03/04 06:14:49;;;;;;;0.20;0.20;;;6.80;99.90;;;;;;5055915;28;20052;-73
2023/03/04 06:17:15;;;;;;;0.20;0.20;;;6.90;99.90;;;;;;5055620;28;20068;-73
2023/03/04 06:19:41;;;;;;;0.20;0.20;;;6.80;99.90;;;;;;5087635;28;20049;-74
2023/03/04 06:22:08;;;;;;;0.47;0.38;;;6.90;99.90;;;;;;5037280;28;20025;-74
2023/03/04 06:24:34;;;;;;;2.10;0.65;;;6.90;99.90;;;;;;5055303;28;20603;-73
2023/03/04 06:27:00;;;;;;;0.10;0.10;;;6.90;99.90;;;;;;5054329;28;20044;-73
2023/03/04 06:29:26;;;;;;;0.20;0.20;;;7.00;99.90;;;;;;5055602;28;20029;-73
2023/03/04 06:31:52;;;;;;;0.10;0.10;;;7.00;99.90;;;;;;5055499;28;20155;-73
2023/03/04 06:34:18;;;;;;;0.30;0.30;;;7.00;99.90;;;;;;5055225;28;20065;-73
2023/03/04 06:36:44;;;;;;;0.30;0.30;;;7.10;99.90;;;;;;5054901;28;20139;-73
2023/03/04 06:39:10;;;;;;;0.30;0.30;;;7.20;99.90;;;;;;5055331;28;20033;-73
2023/03/04 06:41:36;;;;;;;0.43;0.43;;;7.10;99.90;;;;;;5054615;28;20029;-73
2023/03/04 06:44:02;;;;;;;0.30;0.30;;;7.10;99.90;;;;;;5055132;28;20021;-73
2023/03/04 06:46:28;;;;;;;0.15;0.15;;;7.10;99.90;;;;;;5054913;28;20029;-73
2023/03/04 06:48:53;;;;;;;0.40;0.40;;;7.10;99.90;;;;;;5053824;28;20306;-73
2023/03/04 06:51:19;;;;;;;1.00;1.00;;;7.00;99.90;;;;;;5054125;28;20116;-73
2023/03/04 06:53:45;;;;;;;2.08;0.35;;;7.10;99.90;;;;;;5054334;28;20397;-73
2023/03/04 06:56:14;;;;;;;0.10;0.10;;;7.20;99.90;;;;;;5049933;28;20094;-73
2023/03/04 06:58:41;;;;;;;0.10;0.10;;;7.20;99.90;;;;;;5052174;28;20031;-74
2023/03/04 07:01:12;;;;;;;0.55;0.38;;;7.30;99.90;;;;;;5092004;28;20135;-74
2023/03/04 07:03:37;;;;;;;0.17;0.17;;;7.10;99.90;;;;;;5058032;28;20412;-74
2023/03/04 07:06:03;;;;;;;3.63;0.47;;;7.00;99.90;;;;;;5058797;28;20109;-74
2023/03/04 07:08:29;;;;;;;2.83;0.75;;;7.10;99.90;;;;;;5056865;28;20128;-74
2023/03/04 07:10:55;;;;;;;0.65;0.65;;;7.10;99.90;;;;;;5054031;28;20043;-74
2023/03/04 07:13:20;;;;;;;0.20;0.20;;;7.10;99.90;;;;;;5060863;28;20094;-75
2023/03/04 07:15:46;;;;;;;9.70;0.88;;;7.10;99.90;;;;;;5054156;28;20037;-75
2023/03/04 07:18:12;;;;;;;0.10;0.10;;;7.20;99.90;;;;;;5058251;28;20033;-74
2023/03/04 07:20:37;;;;;;;0.57;0.57;;;7.30;99.90;;;;;;5055031;28;20029;-75
2023/03/04 07:23:03;;;;;;;0.10;0.10;;;7.50;99.90;;;;;;5085077;28;20021;-74
2023/03/04 07:25:29;;;;;;;0.10;0.10;;;7.40;99.90;;;;;;5056349;28;20075;-74
2023/03/04 07:27:55;;;;;;;0.25;0.25;;;7.30;99.90;;;;;;5049641;28;20124;-74
2023/03/04 07:30:20;;;;;;;0.40;0.40;;;7.20;99.90;;;;;;5037799;28;20362;-74
2023/03/04 07:32:46;;;;;;;5.00;0.75;;;7.40;99.90;;;;;;5054948;28;20029;-74
2023/03/04 07:35:12;;;;;;;0.10;0.10;;;7.10;99.90;;;;;;5063278;28;20028;-74
2023/03/04 07:37:39;;;;;;;0.20;0.20;;;7.20;99.90;;;;;;5050815;28;20044;-74
2023/03/04 07:40:07;;;;;;;0.20;0.20;;;7.20;99.90;;;;;;5049207;28;20103;-73
2023/03/04 07:42:33;;;;;;;0.10;0.10;;;7.30;99.90;;;;;;5054955;28;20477;-74
2023/03/04 07:45:05;;;;;;;0.20;0.20;;;7.30;99.90;;;;;;5075098;28;20021;-74
2023/03/04 07:47:31;;;;;;;0.20;0.20;;;7.30;99.90;;;;;;5053480;28;20040;-75
2023/03/04 07:49:57;;;;;;;0.10;0.10;;;7.30;99.90;;;;;;5054763;28;20013;-75
2023/03/04 07:52:22;;;;;;;2.58;0.55;;;7.30;99.90;;;;;;5054804;28;20509;-76
2023/03/04 07:54:48;;;;;;;0.10;0.10;;;7.30;99.90;;;;;;5055245;28;20097;-74
2023/03/04 07:57:14;;;;;;;0.35;0.30;;;7.20;99.90;;;;;;5040347;28;20033;-75
2023/03/04 07:59:40;;;;;;;5.28;0.77;;;7.20;99.90;;;;;;5077149;28;20025;-75
2023/03/04 08:02:06;;;;;;;0.10;0.10;;;7.30;99.90;;;;;;5049296;28;20035;-75
2023/03/04 08:04:32;;;;;;;1.40;1.40;;;7.40;99.90;;;;;;5046159;28;20025;-75
2023/03/04 08:06:58;;;;;;;0.22;0.22;;;7.40;99.90;;;;;;5051941;28;20063;-75
2023/03/04 08:09:24;;;;;;;0.20;0.20;;;7.40;99.90;;;;;;5049447;28;20398;-74
2023/03/04 08:11:49;;;;;;;0.10;0.10;;;7.30;99.90;;;;;;5047975;28;20032;-74
2023/03/04 08:14:15;;;;;;;0.20;0.20;;;7.40;99.90;;;;;;5053675;28;20020;-75
2023/03/04 08:16:41;;;;;;;0.20;0.20;;;7.50;99.90;;;;;;5053844;28;20044;-74
2023/03/04 08:19:07;;;;;;;0.80;0.73;;;7.50;99.90;;;;;;5054144;28;20024;-75
2023/03/04 08:21:34;;;;;;;0.20;0.20;;;7.30;99.90;;;;;;5053603;28;20033;-75
2023/03/04 08:24:06;;;;;;;0.10;0.10;;;7.40;99.90;;;;;;5053888;28;20049;-75
2023/03/04 08:26:40;;;;;;;0.30;0.30;;;7.40;99.90;;;;;;5052137;28;20025;-75
2023/03/04 08:29:09;;;;;;;0.10;0.10;;;7.00;99.90;;;;;;5055660;28;20032;-74
2023/03/04 08:31:35;;;;;;;0.75;0.68;;;7.10;99.90;;;;;;5053404;28;20032;-74
2023/03/04 08:34:03;;;;;;;0.10;0.10;;;7.00;99.90;;;;;;5053003;28;20044;-74
2023/03/04 08:36:29;;;;;;;0.28;0.28;;;7.10;99.90;;;;;;5051295;28;20033;-75
2023/03/04 08:38:54;;;;;;;1.13;0.85;;;7.30;99.90;;;;;;5052968;28;20036;-74
2023/03/04 08:41:21;;;;;;;0.10;0.10;;;7.30;99.90;;;;;;5054424;28;20028;-75
2023/03/04 08:43:47;;;;;;;0.10;0.10;;;7.20;99.90;;;;;;5047423;28;20398;-75
2023/03/04 08:46:13;;;;;;;0.10;0.10;;;7.30;99.90;;;;;;5049877;28;20052;-75
2023/03/04 08:48:39;;;;;;;0.10;0.10;;;7.30;99.90;;;;;;5049780;28;20024;-75
2023/03/04 08:51:13;;;;;;;0.30;0.30;;;7.50;99.90;;;;;;5050154;28;20111;-75
2023/03/04 08:53:39;;;;;;;0.10;0.10;;;7.60;99.90;;;;;;5051985;28;20037;-74
2023/03/04 08:56:06;;;;;;;0.10;0.10;;;7.60;99.90;;;;;;5050969;28;20032;-75
2023/03/04 08:58:32;;;;;;;0.10;0.10;;;7.80;99.90;;;;;;5053204;28;20048;-75
2023/03/04 09:00:59;;;;;;;0.20;0.20;;;7.90;99.90;;;;;;5054392;28;20378;-75
2023/03/04 09:03:26;;;;;;;0.10;0.10;;;7.80;99.90;;;;;;5051870;28;20036;-74
2023/03/04 09:05:51;;;;;;;0.22;0.22;;;7.80;99.90;;;;;;5035497;28;20048;-75
2023/03/04 09:08:17;;;;;;;0.10;0.10;;;7.80;99.90;;;;;;5053266;28;20469;-75
2023/03/04 09:10:45;;;;;;;0.20;0.20;;;7.90;99.90;;;;;;5048449;28;20040;-75
2023/03/04 09:13:11;;;;;;;0.85;0.30;;;8.00;99.90;;;;;;5054753;28;20063;-75
2023/03/04 09:15:42;;;;;;;0.43;0.22;;;8.00;99.90;;;;;;5052340;28;20025;-75
2023/03/04 09:18:09;;;;;;;0.10;0.10;;;8.10;99.90;;;;;;5062747;28;20524;-75
2023/03/04 09:20:34;;;;;;;0.28;0.28;;;8.00;99.90;;;;;;5047904;28;20074;-74
2023/03/04 09:23:01;;;;;;;0.10;0.10;;;8.10;99.90;;;;;;5049611;28;20033;-74
2023/03/04 09:25:27;;;;;;;0.20;0.20;;;8.00;99.90;;;;;;5048626;28;20013;-74
2023/03/04 09:27:52;;;;;;;0.15;0.15;;;7.90;99.90;;;;;;5051040;28;20115;-74
2023/03/04 09:30:18;;;;;;;0.20;0.20;;;7.80;99.90;;;;;;5049774;28;20468;-74
2023/03/04 09:32:44;;;;;;;0.10;0.10;;;7.70;99.90;;;;;;5051337;28;20083;-75
2023/03/04 09:35:10;;;;;;;0.30;0.30;;;7.70;99.90;;;;;;5051715;28;20021;-75
2023/03/04 09:37:36;;;;;;;0.10;0.10;;;7.60;99.90;;;;;;5050661;28;20048;-74
2023/03/04 09:40:03;;;;;;;0.10;0.10;;;7.50;99.90;;;;;;5051370;28;20025;-75
2023/03/04 09:42:41;;;;;;;0.20;0.20;;;7.60;99.90;;;;;;5051907;28;20466;-74
2023/03/04 09:45:11;;;;;;;0.35;0.35;;;7.70;99.90;;;;;;5051986;28;20477;-74
2023/03/04 09:47:38;;;;;;;0.10;0.10;;;7.90;99.90;;;;;;5055629;28;20104;-75
2023/03/04 09:50:08;;;;;;;0.57;0.57;;;8.20;99.90;;;;;;5055399;28;20031;-74
2023/03/04 09:53:06;;;;;;;0.10;0.10;;;8.10;99.90;;;;;;5055500;28;20036;-75
2023/03/04 09:55:40;;;;;;;0.10;0.10;;;7.70;99.90;;;;;;5065732;28;20441;-75
2023/03/04 09:58:17;;;;;;;0.10;0.10;;;7.70;99.90;;;;;;5047522;28;20044;-74
2023/03/04 10:00:50;;;;;;;0.15;0.15;;;7.90;99.90;;;;;;5066721;28;20050;-74
2023/03/04 10:03:24;;;;;;;0.13;0.13;;;7.90;99.90;;;;;;5049488;28;20025;-74
2023/03/04 10:06:06;;;;;;;0.20;0.20;;;8.00;99.90;;;;;;5052988;28;20444;-74
2023/03/04 10:08:53;;;;;;;0.20;0.20;;;8.10;99.90;;;;;;5055540;28;20025;-74
2023/03/04 10:11:28;;;;;;;0.20;0.20;;;8.10;99.90;;;;;;5054138;28;20112;-74
2023/03/04 10:14:19;;;;;;;0.60;0.60;;;8.10;99.90;;;;;;5054804;28;20041;-75
2023/03/04 10:17:03;;;;;;;0.35;0.35;;;8.30;99.90;;;;;;5055052;28;20545;-74
2023/03/04 10:19:57;;;;;;;0.20;0.20;;;8.40;99.90;;;;;;5037123;28;20025;-74
2023/03/04 10:22:44;;;;;;;0.10;0.10;;;8.30;99.90;;;;;;5054780;28;20025;-74
2023/03/04 10:25:26;;;;;;;0.40;0.40;;;8.20;99.90;;;;;;5052556;28;20024;-81
2023/03/04 10:28:01;;;;;;;;;;;8.30;99.90;;;;;;5055232;28;20108;-75
2023/03/04 10:31:05;;;;;;;0.10;0.10;;;8.40;99.90;;;;;;5054912;28;19915;-74
2023/03/04 10:33:34;;;;;;;0.25;0.17;;;8.50;99.90;;;;;;5052723;28;20390;-74
2023/03/04 10:36:05;;;;;;;0.20;0.20;;;8.90;99.90;;;;;;5054737;28;20025;-74
2023/03/04 10:38:34;;;;;;;0.10;0.10;;;8.80;99.90;;;;;;5064584;28;20036;-74
2023/03/04 10:41:10;;;;;;;0.13;0.13;;;9.10;99.90;;;;;;5047476;28;20066;-74
2023/03/04 10:43:36;;;;;;;3.13;1.98;;;9.10;99.90;;;;;;5052697;28;20025;-74
2023/03/04 10:46:02;;;;;;;0.10;0.10;;;8.70;99.90;;;;;;5054560;28;20107;-74
2023/03/04 10:48:32;;;;;;;0.40;0.15;;;8.50;99.90;;;;;;5054542;28;20113;-74
2023/03/04 10:51:22;;;;;;;0.10;0.10;;;8.90;99.90;;;;;;5047244;28;20057;-74
2023/03/04 10:53:54;;;;;;;0.10;0.10;;;9.20;99.90;;;;;;5050306;28;20091;-75
2023/03/04 10:56:37;;;;;;;0.10;0.10;;;9.60;99.90;;;;;;5052887;28;20033;-74
2023/03/04 10:59:34;;;;;;;2.47;0.55;;;9.70;99.90;;;;;;5053726;28;20056;-75
2023/03/04 11:02:13;;;;;;;0.10;0.10;;;9.60;99.90;;;;;;5053190;28;20104;-75
2023/03/04 11:04:38;;;;;;;0.22;0.22;;;9.70;99.90;;;;;;5052114;28;20086;-74
2023/03/04 11:07:09;;;;;;;2.30;1.95;;;9.60;99.90;;;;;;5051465;28;20044;-74
2023/03/04 11:09:39;;;;;;;0.17;0.17;;;9.30;99.90;;;;;;5054022;28;20090;-75
2023/03/04 11:12:15;;;;;;;0.10;0.10;;;9.30;99.90;;;;;;5053524;28;20025;-75
2023/03/04 11:14:49;;;;;;;0.20;0.20;;;9.50;99.90;;;;;;5054034;28;20029;-74
2023/03/04 11:17:22;;;;;;;0.20;0.20;;;9.50;99.90;;;;;;5053925;28;20473;-75
2023/03/04 11:20:14;;;;;;;0.10;0.10;;;9.50;99.90;;;;;;5050490;28;20043;-74
2023/03/04 11:22:43;;;;;;;0.22;0.22;;;9.30;99.90;;;;;;5049270;28;20090;-75
2023/03/04 11:25:37;;;;;;;0.80;0.63;;;9.10;99.90;;;;;;5051394;28;20028;-74
2023/03/04 11:28:27;;;;;;;0.13;0.13;;;9.60;99.90;;;;;;5044415;28;20033;-74
2023/03/04 11:31:22;;;;;;;0.98;0.43;;;10.60;99.90;;;;;;5042105;28;20092;-75
2023/03/04 11:33:47;;;;;;;0.20;0.20;;;10.30;99.90;;;;;;5049785;28;20052;-75
2023/03/04 11:36:53;;;;;;;1.15;0.30;;;9.70;99.90;;;;;;5052137;28;20033;-74
2023/03/04 11:39:45;;;;;;;0.10;0.10;;;9.80;99.90;;;;;;5042176;28;20056;-74
2023/03/04 11:42:10;;;;;;;0.10;0.10;;;9.60;99.90;;;;;;5047602;28;20492;-74
2023/03/04 11:44:36;;;;;;;0.10;0.10;;;9.60;99.90;;;;;;5052348;28;20029;-74
2023/03/04 11:47:20;;;;;;;0.10;0.10;;;9.30;99.90;;;;;;5049067;28;20061;-75
2023/03/04 11:49:52;;;;;;;0.28;0.28;;;9.20;99.90;;;;;;5066596;28;20086;-74
2023/03/04 11:52:36;;;;;;;0.75;0.75;;;9.00;99.90;;;;;;5051226;28;20088;-74
2023/03/04 11:55:08;;;;;;;7.32;0.35;;;9.20;99.90;;;;;;5049117;28;20025;-74
2023/03/04 11:57:34;;;;;;;;;;;9.30;99.90;;;;;;5051758;28;20033;-74
2023/03/04 12:00:03;;;;;;;0.10;0.10;;;9.50;99.90;;;;;;5050599;28;19913;-75
2023/03/04 12:03:03;;;;;;;0.30;0.30;;;9.40;99.90;;;;;;5035563;28;20059;-74
2023/03/04 12:06:20;;;;;;;0.20;0.20;;;9.30;99.90;;;;;;5062451;28;20036;-74
2023/03/04 12:09:00;;;;;;;0.30;0.30;;;9.10;99.90;;;;;;5034344;28;20037;-74
2023/03/04 12:11:43;;;;;;;0.22;0.22;;;9.10;99.90;;;;;;5018308;28;20120;-74
2023/03/04 12:14:24;;;;;;;0.10;0.10;;;9.20;99.90;;;;;;5047722;28;20034;-74
2023/03/04 12:17:05;;;;;;;0.25;0.25;;;9.30;99.90;;;;;;5045540;28;20048;-74
2023/03/04 12:19:49;;;;;;;0.30;0.30;;;9.20;99.90;;;;;;5050860;28;20483;-74
2023/03/04 12:22:32;;;;;;;0.75;0.30;;;9.00;99.90;;;;;;5051802;28;20029;-74
2023/03/04 12:25:20;;;;;;;0.43;0.43;;;9.00;99.90;;;;;;5047858;28;20104;-74
2023/03/04 12:28:07;;;;;;;0.28;0.28;;;9.40;99.90;;;;;;5046070;28;20075;-76
2023/03/04 12:31:01;;;;;;;0.28;0.28;;;9.30;99.90;;;;;;5050581;28;20057;-75
2023/03/04 12:33:51;;;;;;;0.73;0.73;;;9.10;99.90;;;;;;5041945;28;20592;-75
2023/03/04 12:36:39;;;;;;;0.20;0.20;;;8.80;99.90;;;;;;5052570;28;20046;-75
2023/03/04 12:39:45;;;;;;;3.75;0.35;;;8.70;99.90;;;;;;5043061;28;20509;-76
2023/03/04 12:42:46;;;;;;;0.10;0.10;;;9.10;99.90;;;;;;5049404;28;20444;-75
2023/03/04 12:45:45;;;;;;;0.30;0.30;;;8.80;99.90;;;;;;5052652;28;20469;-75
2023/03/04 12:48:24;;;;;;;0.20;0.20;;;8.50;99.90;;;;;;5046802;28;20416;-75
2023/03/04 12:51:08;;;;;;;0.15;0.15;;;8.70;99.90;;;;;;5051647;28;20033;-75
2023/03/04 12:54:07;;;;;;;0.20;0.20;;;8.70;99.90;;;;;;5044011;28;20088;-75
2023/03/04 12:56:49;;;;;;;1.17;0.75;;;8.80;99.90;;;;;;5051270;28;20095;-75
2023/03/04 12:59:20;;;;;;;0.40;0.40;;;8.70;99.90;;;;;;5047290;28;20024;-75
2023/03/04 13:01:48;;;;;;;0.30;0.30;;;8.80;99.90;;;;;;5052470;28;20154;-76
2023/03/04 13:04:23;;;;;;;0.10;0.10;;;9.00;99.90;;;;;;5052325;28;20041;-75
2023/03/04 13:07:07;;;;;;;0.20;0.20;;;9.10;99.90;;;;;;5053208;28;20377;-75
2023/03/04 13:09:36;;;;;;;0.17;0.17;;;9.00;99.90;;;;;;5049976;28;20025;-75
2023/03/04 13:12:21;;;;;;;0.17;0.17;;;9.10;99.90;;;;;;5052197;28;20048;-75
2023/03/04 13:15:05;;;;;;;0.20;0.20;;;9.20;99.90;;;;;;5053319;28;20067;-75